createdAt,value
2024-04-18T00:01:37.376Z,22.70
2024-04-18T00:04:10.235Z,22.51
2024-04-18T00:06:37.825Z,22.73
2024-04-18T00:09:10.456Z,22.72
2024-04-18T00:11:37.691Z,22.81
2024-04-18T00:14:14.539Z,22.82
2024-04-18T00:16:41.709Z,22.68
2024-04-18T00:19:23.317Z,22.79
2024-04-18T00:21:56.311Z,22.67
2024-04-18T00:24:29.373Z,22.64
2024-04-18T00:26:57.142Z,22.52
2024-04-18T00:29:36.170Z,22.58
2024-04-18T00:32:11.991Z,22.69
2024-04-18T00:35:04.592Z,22.61
2024-04-18T00:37:37.616Z,22.50
2024-04-18T00:40:07.749Z,22.48
2024-04-18T00:42:39.204Z,22.77
2024-04-18T00:45:09.425Z,22.52
2024-04-18T00:47:47.051Z,22.60
2024-04-18T00:50:20.345Z,22.48
2024-04-18T00:52:48.047Z,22.56
2024-04-18T00:55:31.053Z,22.51
2024-04-18T00:58:11.652Z,22.48
2024-04-18T01:00:45.378Z,22.30
2024-04-18T01:03:31.623Z,22.37
2024-04-18T01:06:13.806Z,22.45
2024-04-18T01:09:01.915Z,22.47
2024-04-18T01:11:35.178Z,22.56
2024-04-18T01:14:07.456Z,22.44
2024-04-18T01:16:56.014Z,22.39
2024-04-18T01:19:23.291Z,22.40
2024-04-18T01:21:57.558Z,22.36
2024-04-18T01:24:25.369Z,22.49
2024-04-18T01:26:57.868Z,22.40
2024-04-18T01:29:43.372Z,22.33
2024-04-18T01:32:32.222Z,22.34
2024-04-18T01:34:59.614Z,22.40
2024-04-18T01:37:48.947Z,22.37
2024-04-18T01:40:16.367Z,22.40
2024-04-18T01:42:49.064Z,22.39
2024-04-18T01:45:25.217Z,22.32
2024-04-18T01:48:15.216Z,22.34
2024-04-18T01:51:04.408Z,22.46
2024-04-18T01:53:37.856Z,22.29
2024-04-18T01:56:18.173Z,22.39
2024-04-18T01:58:52.029Z,22.11
2024-04-18T02:01:23.877Z,22.26
2024-04-18T02:03:54.287Z,22.30
2024-04-18T02:06:21.619Z,22.25
2024-04-18T02:08:51.639Z,22.25
2024-04-18T02:11:41.390Z,22.22
2024-04-18T02:14:17.346Z,22.31
2024-04-18T02:16:44.600Z,22.17
2024-04-18T02:19:32.748Z,22.20
2024-04-18T02:22:21.389Z,22.13
2024-04-18T02:25:10.164Z,22.32
2024-04-18T02:27:40.483Z,22.10
2024-04-18T02:30:28.529Z,22.13
2024-04-18T02:33:13.942Z,22.15
2024-04-18T02:35:47.052Z,22.05
2024-04-18T02:38:36.116Z,22.13
2024-04-18T02:41:04.113Z,22.21
2024-04-18T02:43:53.438Z,22.06
2024-04-18T02:46:24.053Z,22.11
2024-04-18T02:49:12.583Z,22.12
2024-04-18T02:51:57.785Z,21.76
2024-04-18T02:54:46.448Z,22.01
2024-04-18T02:57:13.859Z,21.98
2024-04-18T02:59:43.873Z,22.08
2024-04-18T03:02:26.145Z,22.11
2024-04-18T03:05:16.051Z,21.85
2024-04-18T03:07:43.199Z,21.96
2024-04-18T03:10:13.075Z,22.07
2024-04-18T03:12:58.614Z,21.92
2024-04-18T03:15:47.971Z,21.89
2024-04-18T03:18:18.307Z,21.65
2024-04-18T03:20:55.225Z,21.74
2024-04-18T03:23:41.076Z,21.84
2024-04-18T03:26:12.482Z,21.85
2024-04-18T03:28:39.769Z,21.89
2024-04-18T03:31:09.687Z,21.93
2024-04-18T03:33:39.660Z,21.76
2024-04-18T03:36:09.990Z,21.95
2024-04-18T03:38:39.937Z,21.82
2024-04-18T03:41:09.740Z,21.93
2024-04-18T03:44:00.418Z,21.69
2024-04-18T03:46:30.317Z,21.83
2024-04-18T03:49:05.681Z,21.88
2024-04-18T03:51:33.208Z,21.82
2024-04-18T03:54:25.995Z,21.83
2024-04-18T03:56:53.360Z,21.85
2024-04-18T03:59:23.215Z,21.82
2024-04-18T04:01:50.487Z,21.99
2024-04-18T04:04:23.175Z,21.96
2024-04-18T04:06:50.500Z,21.86
2024-04-18T04:09:20.524Z,21.95
2024-04-18T04:11:48.631Z,21.91
2024-04-18T04:14:18.408Z,21.91
2024-04-18T04:16:54.637Z,21.95
2024-04-18T04:19:27.281Z,21.98
2024-04-18T04:21:55.245Z,21.91
2024-04-18T04:24:25.190Z,21.90
2024-04-18T04:26:52.586Z,21.95
2024-04-18T04:29:22.495Z,21.86
2024-04-18T04:31:49.655Z,21.68
2024-04-18T04:34:19.741Z,21.88
2024-04-18T04:36:49.745Z,21.83
2024-04-18T04:39:19.814Z,21.79
2024-04-18T04:41:46.985Z,21.98
2024-04-18T04:44:16.747Z,22.18
2024-04-18T04:46:50.149Z,22.03
2024-04-18T04:49:20.336Z,22.19
2024-04-18T04:52:07.145Z,21.93
2024-04-18T04:54:43.946Z,21.85
2024-04-18T04:57:11.937Z,21.99
2024-04-18T04:59:41.869Z,22.09
2024-04-18T05:02:11.845Z,22.10
2024-04-18T05:04:48.831Z,22.13
2024-04-18T05:07:36.524Z,22.20
2024-04-18T05:10:22.640Z,22.25
2024-04-18T05:12:52.867Z,22.19
2024-04-18T05:15:38.662Z,22.23
2024-04-18T05:18:06.348Z,22.46
2024-04-18T05:20:36.302Z,22.45
2024-04-18T05:23:08.573Z,22.26
2024-04-18T05:25:39.700Z,22.40
2024-04-18T05:28:22.570Z,22.34
2024-04-18T05:31:06.580Z,22.22
2024-04-18T05:33:34.824Z,22.38
2024-04-18T05:36:04.878Z,22.51
2024-04-18T05:38:37.392Z,22.35
2024-04-18T05:41:07.522Z,22.37
2024-04-18T05:43:52.780Z,22.50
2024-04-18T05:46:22.701Z,22.48
2024-04-18T05:48:53.063Z,22.62
2024-04-18T05:51:23.470Z,22.76
2024-04-18T05:54:19.375Z,22.65
2024-04-18T05:57:07.506Z,22.62
2024-04-18T05:59:53.604Z,22.57
2024-04-18T06:02:23.636Z,22.60
2024-04-18T06:04:53.795Z,22.79
2024-04-18T06:07:45.711Z,22.63
2024-04-18T06:10:19.058Z,22.73
2024-04-18T06:12:49.173Z,22.83
2024-04-18T06:15:19.798Z,22.99
2024-04-18T06:17:49.765Z,22.77
2024-04-18T06:20:19.934Z,22.88
2024-04-18T06:22:49.941Z,22.95
2024-04-18T06:25:32.559Z,22.82
2024-04-18T06:28:03.133Z,23.01
2024-04-18T06:30:33.178Z,23.14
2024-04-18T06:33:03.355Z,23.13
2024-04-18T06:35:33.446Z,23.16
2024-04-18T06:38:03.327Z,22.99
2024-04-18T06:40:36.010Z,22.94
2024-04-18T06:43:06.129Z,23.01
2024-04-18T06:45:37.712Z,23.57
2024-04-18T06:48:08.459Z,23.38
2024-04-18T06:50:38.668Z,23.43
2024-04-18T06:53:08.709Z,23.41
2024-04-18T06:55:44.248Z,23.40
2024-04-18T06:58:14.204Z,23.45
2024-04-18T07:00:44.311Z,23.46
2024-04-18T07:03:17.156Z,23.54
2024-04-18T07:05:53.612Z,23.42
2024-04-18T07:08:27.138Z,23.57
2024-04-18T07:11:00.644Z,23.56
2024-04-18T07:13:33.167Z,23.78
2024-04-18T07:16:24.239Z,23.64
2024-04-18T07:18:57.788Z,23.71
2024-04-18T07:21:27.875Z,23.51
2024-04-18T07:24:16.818Z,23.20
2024-04-18T07:26:52.291Z,22.81
2024-04-18T07:29:23.304Z,22.44
2024-04-18T07:31:53.741Z,22.54
2024-04-18T07:34:23.601Z,22.47
2024-04-18T07:36:53.751Z,22.33
2024-04-18T07:39:23.815Z,22.07
2024-04-18T07:41:56.459Z,21.86
2024-04-18T07:44:26.471Z,21.74
2024-04-18T07:46:56.503Z,21.84
2024-04-18T07:49:26.573Z,21.70
2024-04-18T07:51:57.587Z,21.57
2024-04-18T07:54:27.820Z,21.58
2024-04-18T07:57:01.138Z,21.25
2024-04-18T07:59:32.190Z,20.94
2024-04-18T08:02:04.179Z,21.06
2024-04-18T08:05:00.467Z,21.16
2024-04-18T08:07:34.979Z,20.89
2024-04-18T08:10:11.071Z,20.67
2024-04-18T08:12:50.718Z,20.63
2024-04-18T08:18:13.484Z,20.63
2024-04-18T08:20:43.507Z,20.10
2024-04-18T08:23:13.639Z,19.99
2024-04-18T08:25:43.725Z,19.75
2024-04-18T08:28:16.495Z,19.71
2024-04-18T08:30:46.679Z,20.04
2024-04-18T08:33:16.783Z,19.80
2024-04-18T08:35:48.028Z,19.88
2024-04-18T08:38:18.949Z,20.04
2024-04-18T08:40:49.670Z,19.87
2024-04-18T08:43:22.711Z,19.93
2024-04-18T08:45:54.238Z,19.77
2024-04-18T08:48:25.649Z,19.42
2024-04-18T08:50:55.640Z,19.33
2024-04-18T08:53:25.728Z,19.47
2024-04-18T08:55:58.207Z,19.28
2024-04-18T08:58:32.457Z,19.18
2024-04-18T09:01:03.054Z,18.89
2024-04-18T09:03:33.125Z,18.94
2024-04-18T09:06:04.186Z,19.13
2024-04-18T09:08:35.029Z,19.01
2024-04-18T09:11:05.910Z,18.79
2024-04-18T09:13:38.567Z,18.95
2024-04-18T09:16:08.816Z,19.14
2024-04-18T09:18:39.985Z,19.08
2024-04-18T09:21:11.567Z,18.98
2024-04-18T09:23:41.718Z,19.11
2024-04-18T09:26:12.350Z,18.79
2024-04-18T09:28:44.971Z,18.79
2024-04-18T09:31:19.285Z,18.43
2024-04-18T09:33:53.116Z,18.50
2024-04-18T09:36:23.541Z,18.55
2024-04-18T09:38:54.080Z,18.58
2024-04-18T09:41:25.069Z,18.93
2024-04-18T09:44:03.687Z,19.19
2024-04-18T09:46:34.938Z,19.28
2024-04-18T09:49:05.891Z,19.31
2024-04-18T09:51:36.115Z,19.32
2024-04-18T09:54:08.058Z,19.42
2024-04-18T09:56:38.695Z,19.28
2024-04-18T09:59:14.051Z,19.38
2024-04-18T10:01:45.075Z,19.37
2024-04-18T10:04:15.209Z,19.33
2024-04-18T10:06:47.832Z,19.11
2024-04-18T10:09:19.009Z,19.30
2024-04-18T10:11:49.962Z,19.26
2024-04-18T10:14:23.272Z,19.28
2024-04-18T10:16:53.794Z,19.49
2024-04-18T10:19:25.351Z,19.35
2024-04-18T10:22:10.872Z,19.40
2024-04-18T10:24:52.387Z,19.51
2024-04-18T10:27:24.231Z,19.42
2024-04-18T10:30:00.608Z,19.36
2024-04-18T10:32:31.582Z,19.14
2024-04-18T10:35:02.357Z,19.27
2024-04-18T10:37:29.810Z,19.42
2024-04-18T10:40:01.274Z,19.58
2024-04-18T10:42:34.026Z,19.31
2024-04-18T10:45:05.355Z,19.20
2024-04-18T10:47:35.678Z,19.25
2024-04-18T10:50:05.936Z,19.54
2024-04-18T10:52:38.966Z,19.48
2024-04-18T10:55:09.963Z,19.65
2024-04-18T10:57:41.314Z,20.07
2024-04-18T11:00:18.738Z,20.95
2024-04-18T11:02:49.072Z,21.01
2024-04-18T11:05:19.373Z,21.83
2024-04-18T11:07:51.654Z,21.58
2024-04-18T11:10:21.969Z,21.35
2024-04-18T11:12:52.174Z,21.13
2024-04-18T11:15:25.169Z,20.80
2024-04-18T11:17:55.595Z,20.71
2024-04-18T11:20:26.859Z,20.81
2024-04-18T11:23:05.543Z,20.58
2024-04-18T11:25:51.847Z,20.53
2024-04-18T11:28:27.957Z,20.48
2024-04-18T11:31:02.548Z,20.65
2024-04-18T11:33:32.680Z,20.18
2024-04-18T11:36:03.209Z,20.04
2024-04-18T11:38:34.199Z,19.81
2024-04-18T11:41:04.508Z,20.01
2024-04-18T11:43:34.620Z,20.27
2024-04-18T11:46:07.773Z,19.97
2024-04-18T11:48:39.071Z,19.92
2024-04-18T11:51:09.425Z,20.06
2024-04-18T11:53:56.708Z,20.18
2024-04-18T11:56:39.652Z,20.15
2024-04-18T11:59:48.105Z,19.95
2024-04-18T12:02:39.125Z,19.79
2024-04-18T12:05:24.708Z,19.77
2024-04-18T12:08:07.545Z,19.56
2024-04-18T12:10:40.850Z,19.39
2024-04-18T12:13:11.223Z,19.47
2024-04-18T12:15:59.341Z,19.29
2024-04-18T12:18:43.688Z,19.32
2024-04-18T12:21:32.861Z,19.26
2024-04-18T12:24:04.577Z,19.06
2024-04-18T12:26:42.423Z,19.03
2024-04-18T12:29:17.553Z,18.88
2024-04-18T12:32:01.455Z,18.98
2024-04-18T12:34:35.147Z,18.78
2024-04-18T12:37:08.226Z,18.45
2024-04-18T12:39:38.561Z,18.29
2024-04-18T12:42:28.885Z,18.50
2024-04-18T12:44:59.128Z,19.06
2024-04-18T12:47:29.347Z,18.99
2024-04-18T12:50:02.197Z,19.06
2024-04-18T12:52:32.496Z,19.09
2024-04-18T12:55:04.911Z,19.14
2024-04-18T12:57:35.183Z,18.85
2024-04-18T13:00:09.652Z,18.65
2024-04-18T13:02:58.841Z,18.49
2024-04-18T13:05:40.866Z,18.33
2024-04-18T13:08:10.773Z,18.15
2024-04-18T13:10:59.629Z,18.11
2024-04-18T13:13:29.681Z,17.88
2024-04-18T13:16:29.742Z,17.83
2024-04-18T13:19:12.541Z,17.74
2024-04-18T13:21:45.741Z,17.69
2024-04-18T13:24:17.744Z,17.76
2024-04-18T13:26:57.011Z,17.68
2024-04-18T13:29:28.116Z,17.66
2024-04-18T13:32:16.464Z,17.45
2024-04-18T13:34:48.778Z,17.46
2024-04-18T13:37:21.586Z,17.77
2024-04-18T13:40:11.888Z,17.85
2024-04-18T13:43:00.746Z,18.40
2024-04-18T13:45:29.404Z,18.18
2024-04-18T13:47:59.856Z,18.15
2024-04-18T13:50:44.961Z,18.05
2024-04-18T13:53:17.650Z,17.97
2024-04-18T13:55:52.082Z,18.09
2024-04-18T13:58:24.087Z,18.28
2024-04-18T14:01:03.214Z,18.38
2024-04-18T14:03:33.993Z,18.11
2024-04-18T14:06:07.714Z,17.66
2024-04-18T14:08:44.427Z,17.29
2024-04-18T14:11:32.903Z,17.10
2024-04-18T14:14:08.314Z,16.93
2024-04-18T14:16:54.614Z,16.98
2024-04-18T14:19:34.054Z,17.00
2024-04-18T14:22:07.950Z,16.99
2024-04-18T14:24:41.593Z,17.14
2024-04-18T14:27:20.332Z,17.18
2024-04-18T14:30:03.291Z,17.54
2024-04-18T14:32:37.151Z,17.72
2024-04-18T14:35:07.667Z,17.51
2024-04-18T14:37:37.786Z,17.51
2024-04-18T14:40:13.983Z,17.39
2024-04-18T14:42:44.226Z,17.22
2024-04-18T14:45:16.737Z,17.21
2024-04-18T14:47:46.767Z,17.30
2024-04-18T14:50:16.749Z,17.24
2024-04-18T14:52:46.695Z,17.06
2024-04-18T14:55:34.177Z,17.03
2024-04-18T14:58:19.224Z,16.82
2024-04-18T15:00:53.253Z,16.84
2024-04-18T15:03:23.790Z,17.02
2024-04-18T15:05:55.992Z,16.62
2024-04-18T15:08:41.330Z,16.67
2024-04-18T15:11:30.701Z,16.88
2024-04-18T15:14:09.618Z,16.88
2024-04-18T15:16:43.094Z,16.91
2024-04-18T15:19:13.825Z,16.94
2024-04-18T15:22:19.282Z,16.76
2024-04-18T15:24:50.037Z,16.68
2024-04-18T15:27:22.713Z,16.91
2024-04-18T15:29:52.626Z,16.96
2024-04-18T15:32:25.596Z,17.00
2024-04-18T15:35:14.191Z,16.86
2024-04-18T15:38:02.726Z,16.94
2024-04-18T15:40:35.224Z,16.87
2024-04-18T15:43:10.850Z,16.79
2024-04-18T15:45:41.829Z,16.65
2024-04-18T15:48:24.446Z,16.70
2024-04-18T15:50:58.324Z,16.72
2024-04-18T15:53:34.636Z,16.50
2024-04-18T15:56:11.257Z,16.50
2024-04-18T15:59:03.674Z,16.57
2024-04-18T16:01:50.880Z,16.71
2024-04-18T16:04:39.710Z,16.78
2024-04-18T16:07:09.690Z,16.72
2024-04-18T16:09:54.873Z,16.76
2024-04-18T16:12:24.920Z,16.57
2024-04-18T16:15:06.981Z,16.50
2024-04-18T16:17:56.938Z,16.23
2024-04-18T16:20:26.810Z,15.91
2024-04-18T16:22:56.953Z,15.84
2024-04-18T16:25:31.359Z,16.08
2024-04-18T16:28:02.406Z,16.07
2024-04-18T16:30:35.004Z,16.33
2024-04-18T16:33:05.289Z,16.23
2024-04-18T16:35:35.304Z,16.21
2024-04-18T16:38:14.169Z,15.94
2024-04-18T16:40:53.156Z,16.14
2024-04-18T16:43:34.642Z,16.23
2024-04-18T16:46:09.399Z,16.25
2024-04-18T16:48:40.488Z,16.48
2024-04-18T16:51:10.668Z,16.56
2024-04-18T16:53:59.595Z,16.68
2024-04-18T16:56:49.474Z,16.74
2024-04-18T16:59:19.676Z,16.57
2024-04-18T17:01:52.357Z,16.43
2024-04-18T17:04:22.334Z,16.45
2024-04-18T17:07:08.883Z,16.50
2024-04-18T17:10:14.066Z,16.63
2024-04-18T17:13:04.403Z,16.68
2024-04-18T17:15:52.900Z,16.62
2024-04-18T17:18:25.752Z,16.74
2024-04-18T17:21:01.290Z,16.59
2024-04-18T17:23:32.246Z,16.81
2024-04-18T17:26:02.187Z,16.62
2024-04-18T17:28:32.160Z,16.84
2024-04-18T17:31:04.803Z,16.84
2024-04-18T17:33:37.884Z,16.79
2024-04-18T17:36:08.654Z,16.85
2024-04-18T17:38:48.899Z,17.02
2024-04-18T17:41:31.168Z,17.01
2024-04-18T17:44:19.775Z,17.12
2024-04-18T17:46:58.936Z,16.96
2024-04-18T17:49:31.910Z,16.97
2024-04-18T17:52:01.776Z,17.09
2024-04-18T17:54:31.917Z,17.21
2024-04-18T17:57:01.893Z,17.17
2024-04-18T17:59:31.987Z,17.13
2024-04-18T18:02:01.935Z,17.26
2024-04-18T18:04:34.634Z,17.33
2024-04-18T18:07:04.704Z,17.27
2024-04-18T18:09:34.712Z,17.46
2024-04-18T18:12:04.664Z,17.52
2024-04-18T18:14:32.291Z,17.35
2024-04-18T18:17:03.647Z,17.37
2024-04-18T18:19:36.609Z,17.49
2024-04-18T18:22:07.192Z,17.48
2024-04-18T18:24:38.005Z,17.50
2024-04-18T18:27:08.224Z,17.52
2024-04-18T18:29:35.451Z,17.55
2024-04-18T18:32:14.309Z,17.75
2024-04-18T18:34:46.963Z,17.79
2024-04-18T18:37:17.046Z,17.82
2024-04-18T18:40:05.332Z,17.97
2024-04-18T18:42:35.263Z,17.82
2024-04-18T18:45:02.504Z,18.01
2024-04-18T18:47:32.337Z,18.42
2024-04-18T18:50:21.459Z,18.79
2024-04-18T18:52:51.961Z,18.94
2024-04-18T18:55:35.467Z,19.16
2024-04-18T18:58:05.256Z,19.58
2024-04-18T19:00:32.488Z,19.91
2024-04-18T19:03:20.261Z,20.15
2024-04-18T19:05:51.491Z,20.45
2024-04-18T19:08:21.459Z,20.73
2024-04-18T19:10:57.373Z,20.84
2024-04-18T19:13:24.653Z,21.05
2024-04-18T19:16:00.770Z,21.08
2024-04-18T19:18:28.438Z,21.38
2024-04-18T19:21:01.109Z,21.70
2024-04-18T19:23:37.916Z,21.64
2024-04-18T19:26:08.145Z,22.17
2024-04-18T19:28:35.295Z,22.57
2024-04-18T19:31:05.292Z,22.53
2024-04-18T19:33:32.629Z,22.57
2024-04-18T19:36:05.922Z,22.28
2024-04-18T19:38:33.737Z,22.31
2024-04-18T19:41:25.255Z,22.40
2024-04-18T19:43:53.930Z,22.53
2024-04-18T19:46:25.464Z,22.36
2024-04-18T19:49:21.743Z,22.33
2024-04-18T19:51:57.357Z,22.29
2024-04-18T19:54:27.442Z,22.26
2024-04-18T19:56:54.708Z,22.25
2024-04-18T19:59:25.096Z,22.59
2024-04-18T20:01:52.346Z,22.32
2024-04-18T20:04:22.296Z,22.37
2024-04-18T20:06:49.678Z,22.42
2024-04-18T20:09:22.347Z,22.41
2024-04-18T20:11:49.543Z,22.65
2024-04-18T20:14:22.564Z,22.75
2024-04-18T20:16:49.739Z,22.77
2024-04-18T20:19:19.721Z,22.69
2024-04-18T20:21:47.093Z,23.09
2024-04-18T20:24:17.468Z,23.14
2024-04-18T20:27:06.152Z,23.23
2024-04-18T20:29:47.888Z,23.33
2024-04-18T20:32:21.382Z,23.42
2024-04-18T20:34:51.492Z,23.53
2024-04-18T20:37:18.822Z,23.51
2024-04-18T20:39:48.868Z,23.72
2024-04-18T20:42:18.995Z,23.74
2024-04-18T20:45:04.812Z,23.80
2024-04-18T20:47:32.335Z,23.81
2024-04-18T20:50:03.507Z,23.83
2024-04-18T20:52:30.986Z,23.99
2024-04-18T20:55:00.889Z,23.92
2024-04-18T20:57:30.756Z,24.02
2024-04-18T21:00:00.531Z,24.04
2024-04-18T21:02:28.611Z,24.08
2024-04-18T21:04:58.957Z,24.06
2024-04-18T21:07:26.177Z,24.04
2024-04-18T21:09:56.111Z,23.93
2024-04-18T21:12:25.551Z,24.13
2024-04-18T21:14:58.129Z,24.04
2024-04-18T21:17:25.584Z,23.93
2024-04-18T21:19:55.519Z,24.10
2024-04-18T21:22:22.715Z,24.46
2024-04-18T21:24:52.855Z,24.06
2024-04-18T21:27:20.066Z,24.20
2024-04-18T21:29:49.955Z,24.25
2024-04-18T21:32:19.903Z,24.29
2024-04-18T21:34:49.860Z,24.28
2024-04-18T21:37:17.341Z,24.32
2024-04-18T21:39:47.496Z,24.48
2024-04-18T21:42:14.749Z,24.36
2024-04-18T21:44:44.791Z,24.58
2024-04-18T21:47:11.993Z,24.56
2024-04-18T21:49:44.629Z,24.58
2024-04-18T21:52:11.971Z,24.60
2024-04-18T21:54:41.925Z,24.77
2024-04-18T21:57:09.287Z,24.89
2024-04-18T21:59:39.421Z,24.98
2024-04-18T22:02:06.790Z,25.02
2024-04-18T22:04:36.747Z,25.08
2024-04-18T22:07:09.922Z,25.16
2024-04-18T22:09:39.911Z,25.02
2024-04-18T22:12:07.354Z,24.94
2024-04-18T22:14:37.418Z,24.91
2024-04-18T22:17:05.322Z,24.79
2024-04-18T22:19:35.508Z,24.76
2024-04-18T22:22:02.844Z,24.88
2024-04-18T22:24:35.532Z,24.84
2024-04-18T22:27:03.087Z,24.76
2024-04-18T22:29:33.075Z,24.83
2024-04-18T22:32:00.531Z,24.82
2024-04-18T22:34:36.713Z,24.85
2024-04-18T22:37:25.026Z,24.75
2024-04-18T22:39:57.603Z,24.57
2024-04-18T22:42:24.841Z,24.70
2024-04-18T22:44:54.915Z,24.77
2024-04-18T22:47:22.445Z,24.77
2024-04-18T22:49:53.642Z,24.56
2024-04-18T22:52:20.845Z,24.71
2024-04-18T22:54:50.891Z,24.80
2024-04-18T22:57:20.991Z,24.85
2024-04-18T22:59:50.994Z,24.79
2024-04-18T23:02:18.611Z,24.72
2024-04-18T23:04:48.586Z,24.80
2024-04-18T23:07:15.923Z,24.89
2024-04-18T23:09:46.316Z,25.03
2024-04-18T23:12:13.727Z,24.86
2024-04-18T23:14:46.464Z,24.69
2024-04-18T23:17:13.774Z,24.65
2024-04-18T23:19:43.754Z,24.85
2024-04-18T23:22:11.002Z,24.90
2024-04-18T23:24:40.855Z,24.73
2024-04-18T23:27:08.197Z,24.87
2024-04-18T23:29:38.246Z,24.82
2024-04-18T23:32:08.644Z,24.89
2024-04-18T23:34:38.573Z,25.05
2024-04-18T23:37:06.040Z,24.91
2024-04-18T23:39:36.147Z,25.25
2024-04-18T23:42:03.490Z,25.26
2024-04-18T23:44:33.461Z,25.13
2024-04-18T23:47:05.235Z,25.02
2024-04-18T23:49:37.887Z,25.07
2024-04-18T23:52:08.153Z,25.23
2024-04-18T23:54:35.637Z,25.19
2024-04-18T23:57:05.704Z,25.27
2024-04-18T23:59:32.954Z,25.30
